sensor_id;sensor_type;location;lat;lon;timestamp;temperature;humidity
11855;DHT22;5987;53.140;8.904;2024-03-22T00:01:38;10.30;99.90
11855;DHT22;5987;53.140;8.904;2024-03-22T00:04:39;10.20;99.90
11855;DHT22;5987;53.140;8.904;2024-03-22T00:07:42;10.20;99.90
11855;DHT22;5987;53.140;8.904;2024-03-22T00:10:43;10.30;99.90
11855;DHT22;5987;53.140;8.904;2024-03-22T00:13:45;10.20;99.90
11855;DHT22;5987;53.140;8.904;2024-03-22T00:16:47;10.20;99.90
11855;DHT22;5987;53.140;8.904;2024-03-22T00:19:49;10.30;99.90
11855;DHT22;5987;53.140;8.904;2024-03-22T00:22:51;10.30;99.90
11855;DHT22;5987;53.140;8.904;2024-03-22T00:25:53;10.40;99.90
11855;DHT22;5987;53.140;8.904;2024-03-22T00:28:54;10.40;99.90
11855;DHT22;5987;53.140;8.904;2024-03-22T00:31:58;10.40;99.90
11855;DHT22;5987;53.140;8.904;2024-03-22T00:35:01;10.50;99.90
11855;DHT22;5987;53.140;8.904;2024-03-22T00:38:02;10.40;99.90
11855;DHT22;5987;53.140;8.904;2024-03-22T00:41:05;10.40;99.90
11855;DHT22;5987;53.140;8.904;2024-03-22T00:44:07;10.40;99.90
11855;DHT22;5987;53.140;8.904;2024-03-22T00:47:09;10.50;99.90
11855;DHT22;5987;53.140;8.904;2024-03-22T00:50:12;10.40;99.90
11855;DHT22;5987;53.140;8.904;2024-03-22T00:53:14;10.50;99.90
11855;DHT22;5987;53.140;8.904;2024-03-22T00:56:16;10.50;99.90
11855;DHT22;5987;53.140;8.904;2024-03-22T00:59:18;10.40;99.90
11855;DHT22;5987;53.140;8.904;2024-03-22T01:02:20;10.40;99.90
11855;DHT22;5987;53.140;8.904;2024-03-22T01:05:23;10.30;99.90
11855;DHT22;5987;53.140;8.904;2024-03-22T01:08:24;10.30;99.90
11855;DHT22;5987;53.140;8.904;2024-03-22T01:11:27;10.40;99.90
11855;DHT22;5987;53.140;8.904;2024-03-22T01:14:28;10.40;99.90
11855;DHT22;5987;53.140;8.904;2024-03-22T01:17:30;10.40;99.90
11855;DHT22;5987;53.140;8.904;2024-03-22T01:20:32;10.40;99.90
11855;DHT22;5987;53.140;8.904;2024-03-22T01:23:34;10.50;99.90
11855;DHT22;5987;53.140;8.904;2024-03-22T01:26:35;10.50;99.90
11855;DHT22;5987;53.140;8.904;2024-03-22T01:29:38;10.50;99.90
11855;DHT22;5987;53.140;8.904;2024-03-22T01:32:39;10.50;99.90
11855;DHT22;5987;53.140;8.904;2024-03-22T01:35:41;10.60;99.90
11855;DHT22;5987;53.140;8.904;2024-03-22T01:38:43;10.50;99.90
11855;DHT22;5987;53.140;8.904;2024-03-22T01:41:45;10.50;99.90
11855;DHT22;5987;53.140;8.904;2024-03-22T01:44:49;10.50;99.90
11855;DHT22;5987;53.140;8.904;2024-03-22T01:47:52;10.50;99.90
11855;DHT22;5987;53.140;8.904;2024-03-22T01:50:56;10.50;99.90
11855;DHT22;5987;53.140;8.904;2024-03-22T01:54:00;10.60;99.90
11855;DHT22;5987;53.140;8.904;2024-03-22T01:57:04;10.60;99.90
11855;DHT22;5987;53.140;8.904;2024-03-22T02:00:07;10.50;99.90
11855;DHT22;5987;53.140;8.904;2024-03-22T02:03:09;10.50;99.90
11855;DHT22;5987;53.140;8.904;2024-03-22T02:06:11;10.50;99.90
11855;DHT22;5987;53.140;8.904;2024-03-22T02:09:13;10.60;99.90
11855;DHT22;5987;53.140;8.904;2024-03-22T02:12:16;10.70;99.90
11855;DHT22;5987;53.140;8.904;2024-03-22T02:15:18;10.60;99.90
11855;DHT22;5987;53.140;8.904;2024-03-22T02:18:20;10.60;99.90
11855;DHT22;5987;53.140;8.904;2024-03-22T02:21:22;10.60;99.90
11855;DHT22;5987;53.140;8.904;2024-03-22T02:24:24;10.60;99.90
11855;DHT22;5987;53.140;8.904;2024-03-22T02:27:26;10.60;99.90
11855;DHT22;5987;53.140;8.904;2024-03-22T02:30:28;10.70;99.90
11855;DHT22;5987;53.140;8.904;2024-03-22T02:33:30;10.70;99.90
11855;DHT22;5987;53.140;8.904;2024-03-22T02:36:33;10.70;99.90
11855;DHT22;5987;53.140;8.904;2024-03-22T02:39:34;10.70;99.90
11855;DHT22;5987;53.140;8.904;2024-03-22T02:42:36;10.60;99.90
11855;DHT22;5987;53.140;8.904;2024-03-22T02:45:39;10.70;99.90
11855;DHT22;5987;53.140;8.904;2024-03-22T02:48:40;10.70;99.90
11855;DHT22;5987;53.140;8.904;2024-03-22T02:51:43;10.70;99.90
11855;DHT22;5987;53.140;8.904;2024-03-22T02:54:44;10.70;99.90
11855;DHT22;5987;53.140;8.904;2024-03-22T02:57:46;10.70;99.90
11855;DHT22;5987;53.140;8.904;2024-03-22T03:00:50;10.70;99.90
11855;DHT22;5987;53.140;8.904;2024-03-22T03:03:53;10.70;99.90
11855;DHT22;5987;53.140;8.904;2024-03-22T03:06:54;10.70;99.90
11855;DHT22;5987;53.140;8.904;2024-03-22T03:09:57;10.70;99.90
11855;DHT22;5987;53.140;8.904;2024-03-22T03:12:58;10.80;99.90
11855;DHT22;5987;53.140;8.904;2024-03-22T03:16:02;10.70;99.90
11855;DHT22;5987;53.140;8.904;2024-03-22T03:19:04;10.70;99.90
11855;DHT22;5987;53.140;8.904;2024-03-22T03:22:06;10.70;99.90
11855;DHT22;5987;53.140;8.904;2024-03-22T03:25:08;10.60;99.90
11855;DHT22;5987;53.140;8.904;2024-03-22T03:28:10;10.60;99.90
11855;DHT22;5987;53.140;8.904;2024-03-22T03:31:13;10.70;99.90
11855;DHT22;5987;53.140;8.904;2024-03-22T03:34:15;10.70;99.90
11855;DHT22;5987;53.140;8.904;2024-03-22T03:37:17;10.80;99.90
11855;DHT22;5987;53.140;8.904;2024-03-22T03:40:19;10.80;99.90
11855;DHT22;5987;53.140;8.904;2024-03-22T03:43:22;10.80;99.90
11855;DHT22;5987;53.140;8.904;2024-03-22T03:46:24;10.90;99.90
11855;DHT22;5987;53.140;8.904;2024-03-22T03:49:26;10.90;99.90
11855;DHT22;5987;53.140;8.904;2024-03-22T03:52:28;10.90;99.90
11855;DHT22;5987;53.140;8.904;2024-03-22T03:55:31;10.90;99.90
11855;DHT22;5987;53.140;8.904;2024-03-22T03:58:32;10.90;99.90
11855;DHT22;5987;53.140;8.904;2024-03-22T04:01:34;10.90;99.90
11855;DHT22;5987;53.140;8.904;2024-03-22T04:04:36;10.90;99.90
11855;DHT22;5987;53.140;8.904;2024-03-22T04:07:38;10.90;99.90
11855;DHT22;5987;53.140;8.904;2024-03-22T04:10:40;10.90;99.90
11855;DHT22;5987;53.140;8.904;2024-03-22T04:13:42;10.90;99.90
11855;DHT22;5987;53.140;8.904;2024-03-22T04:16:44;10.90;99.90
11855;DHT22;5987;53.140;8.904;2024-03-22T04:19:46;10.90;99.90
11855;DHT22;5987;53.140;8.904;2024-03-22T04:22:50;11.00;99.90
11855;DHT22;5987;53.140;8.904;2024-03-22T04:25:57;11.00;99.90
11855;DHT22;5987;53.140;8.904;2024-03-22T04:29:00;11.00;99.90
11855;DHT22;5987;53.140;8.904;2024-03-22T04:32:03;10.90;99.90
11855;DHT22;5987;53.140;8.904;2024-03-22T04:35:05;11.00;99.90
11855;DHT22;5987;53.140;8.904;2024-03-22T04:38:07;11.00;99.90
11855;DHT22;5987;53.140;8.904;2024-03-22T04:41:13;11.10;99.90
11855;DHT22;5987;53.140;8.904;2024-03-22T04:44:16;11.10;99.90
11855;DHT22;5987;53.140;8.904;2024-03-22T04:47:18;11.10;99.90
11855;DHT22;5987;53.140;8.904;2024-03-22T04:50:20;11.10;99.90
11855;DHT22;5987;53.140;8.904;2024-03-22T04:53:22;11.10;99.90
11855;DHT22;5987;53.140;8.904;2024-03-22T04:56:24;11.10;99.90
11855;DHT22;5987;53.140;8.904;2024-03-22T04:59:27;11.10;99.90
11855;DHT22;5987;53.140;8.904;2024-03-22T05:02:28;11.10;99.90
11855;DHT22;5987;53.140;8.904;2024-03-22T05:05:31;11.10;99.90
11855;DHT22;5987;53.140;8.904;2024-03-22T05:08:32;11.10;99.90
11855;DHT22;5987;53.140;8.904;2024-03-22T05:11:35;11.20;99.90
11855;DHT22;5987;53.140;8.904;2024-03-22T05:14:36;11.20;99.90
11855;DHT22;5987;53.140;8.904;2024-03-22T05:17:39;11.20;99.90
11855;DHT22;5987;53.140;8.904;2024-03-22T05:20:42;11.20;99.90
11855;DHT22;5987;53.140;8.904;2024-03-22T05:23:44;11.30;99.90
11855;DHT22;5987;53.140;8.904;2024-03-22T05:26:46;11.30;99.90
11855;DHT22;5987;53.140;8.904;2024-03-22T05:29:48;11.30;99.90
11855;DHT22;5987;53.140;8.904;2024-03-22T05:32:49;11.30;99.90
11855;DHT22;5987;53.140;8.904;2024-03-22T05:35:52;11.30;99.90
11855;DHT22;5987;53.140;8.904;2024-03-22T05:38:53;11.30;99.90
11855;DHT22;5987;53.140;8.904;2024-03-22T05:41:56;11.30;99.90
11855;DHT22;5987;53.140;8.904;2024-03-22T05:44:57;11.30;99.90
11855;DHT22;5987;53.140;8.904;2024-03-22T05:48:00;11.30;99.90
11855;DHT22;5987;53.140;8.904;2024-03-22T05:51:01;11.30;99.90
11855;DHT22;5987;53.140;8.904;2024-03-22T05:54:03;11.30;99.90
11855;DHT22;5987;53.140;8.904;2024-03-22T05:57:05;11.30;99.90
11855;DHT22;5987;53.140;8.904;2024-03-22T06:00:09;11.30;99.90
11855;DHT22;5987;53.140;8.904;2024-03-22T06:03:12;11.40;99.90
11855;DHT22;5987;53.140;8.904;2024-03-22T06:06:14;11.40;99.90
11855;DHT22;5987;53.140;8.904;2024-03-22T06:09:16;11.40;99.90
11855;DHT22;5987;53.140;8.904;2024-03-22T06:12:24;11.40;99.90
11855;DHT22;5987;53.140;8.904;2024-03-22T06:15:26;11.50;99.90
11855;DHT22;5987;53.140;8.904;2024-03-22T06:18:29;11.50;99.90
11855;DHT22;5987;53.140;8.904;2024-03-22T06:21:32;11.60;99.90
11855;DHT22;5987;53.140;8.904;2024-03-22T06:24:33;11.60;99.90
11855;DHT22;5987;53.140;8.904;2024-03-22T06:27:36;11.70;99.90
11855;DHT22;5987;53.140;8.904;2024-03-22T06:30:38;11.70;99.90
11855;DHT22;5987;53.140;8.904;2024-03-22T06:33:41;11.70;99.90
11855;DHT22;5987;53.140;8.904;2024-03-22T06:36:42;11.60;99.90
11855;DHT22;5987;53.140;8.904;2024-03-22T06:39:44;11.70;99.90
11855;DHT22;5987;53.140;8.904;2024-03-22T06:42:46;11.80;99.90
11855;DHT22;5987;53.140;8.904;2024-03-22T06:45:49;11.70;99.90
11855;DHT22;5987;53.140;8.904;2024-03-22T06:48:50;11.70;99.90
11855;DHT22;5987;53.140;8.904;2024-03-22T06:51:53;11.70;99.90
11855;DHT22;5987;53.140;8.904;2024-03-22T06:54:55;11.80;99.90
11855;DHT22;5987;53.140;8.904;2024-03-22T06:57:57;11.70;99.90
11855;DHT22;5987;53.140;8.904;2024-03-22T07:00:58;11.80;99.90
11855;DHT22;5987;53.140;8.904;2024-03-22T07:04:00;11.70;99.90
11855;DHT22;5987;53.140;8.904;2024-03-22T07:07:03;11.70;99.90
11855;DHT22;5987;53.140;8.904;2024-03-22T07:10:05;11.60;99.90
11855;DHT22;5987;53.140;8.904;2024-03-22T07:13:07;11.60;99.90
11855;DHT22;5987;53.140;8.904;2024-03-22T07:16:09;11.60;99.90
11855;DHT22;5987;53.140;8.904;2024-03-22T07:19:11;11.60;99.90
11855;DHT22;5987;53.140;8.904;2024-03-22T07:22:14;11.60;99.90
11855;DHT22;5987;53.140;8.904;2024-03-22T07:25:15;11.60;99.90
11855;DHT22;5987;53.140;8.904;2024-03-22T07:28:17;11.60;99.90
11855;DHT22;5987;53.140;8.904;2024-03-22T07:31:20;11.70;99.90
11855;DHT22;5987;53.140;8.904;2024-03-22T07:34:22;11.70;99.90
11855;DHT22;5987;53.140;8.904;2024-03-22T07:37:23;11.70;99.90
11855;DHT22;5987;53.140;8.904;2024-03-22T07:40:26;11.60;99.90
11855;DHT22;5987;53.140;8.904;2024-03-22T07:43:28;11.50;99.90
11855;DHT22;5987;53.140;8.904;2024-03-22T07:46:29;11.60;99.90
11855;DHT22;5987;53.140;8.904;2024-03-22T07:49:32;11.60;99.90
11855;DHT22;5987;53.140;8.904;2024-03-22T07:52:34;11.60;99.90
11855;DHT22;5987;53.140;8.904;2024-03-22T07:55:37;11.60;99.90
11855;DHT22;5987;53.140;8.904;2024-03-22T07:58:39;11.60;99.90
11855;DHT22;5987;53.140;8.904;2024-03-22T08:01:41;11.60;99.90
11855;DHT22;5987;53.140;8.904;2024-03-22T08:04:43;11.60;99.90
11855;DHT22;5987;53.140;8.904;2024-03-22T08:07:45;11.60;99.90
11855;DHT22;5987;53.140;8.904;2024-03-22T08:10:47;11.60;99.90
11855;DHT22;5987;53.140;8.904;2024-03-22T08:13:49;11.50;99.90
11855;DHT22;5987;53.140;8.904;2024-03-22T08:16:51;11.50;99.90
11855;DHT22;5987;53.140;8.904;2024-03-22T08:19:54;11.50;99.90
11855;DHT22;5987;53.140;8.904;2024-03-22T08:22:55;11.50;99.90
11855;DHT22;5987;53.140;8.904;2024-03-22T08:25:58;11.50;99.90
11855;DHT22;5987;53.140;8.904;2024-03-22T08:28:59;11.50;99.90
11855;DHT22;5987;53.140;8.904;2024-03-22T08:32:03;11.50;99.90
11855;DHT22;5987;53.140;8.904;2024-03-22T08:35:06;11.50;99.90
11855;DHT22;5987;53.140;8.904;2024-03-22T08:38:08;11.40;99.90
11855;DHT22;5987;53.140;8.904;2024-03-22T08:41:11;11.50;99.90
11855;DHT22;5987;53.140;8.904;2024-03-22T08:44:13;11.40;99.90
11855;DHT22;5987;53.140;8.904;2024-03-22T08:47:15;11.50;99.90
11855;DHT22;5987;53.140;8.904;2024-03-22T08:50:16;11.50;99.90
11855;DHT22;5987;53.140;8.904;2024-03-22T08:53:19;11.50;99.90
11855;DHT22;5987;53.140;8.904;2024-03-22T08:56:21;11.50;99.90
11855;DHT22;5987;53.140;8.904;2024-03-22T08:59:22;11.60;99.90
11855;DHT22;5987;53.140;8.904;2024-03-22T09:02:25;11.60;99.90
11855;DHT22;5987;53.140;8.904;2024-03-22T09:05:28;11.60;99.90
11855;DHT22;5987;53.140;8.904;2024-03-22T09:08:30;11.60;99.90
11855;DHT22;5987;53.140;8.904;2024-03-22T09:11:32;11.60;99.90
11855;DHT22;5987;53.140;8.904;2024-03-22T09:14:34;11.70;99.90
11855;DHT22;5987;53.140;8.904;2024-03-22T09:17:35;11.60;99.90
11855;DHT22;5987;53.140;8.904;2024-03-22T09:20:37;11.70;99.90
11855;DHT22;5987;53.140;8.904;2024-03-22T09:23:39;11.70;99.90
11855;DHT22;5987;53.140;8.904;2024-03-22T09:26:41;11.70;99.90
11855;DHT22;5987;53.140;8.904;2024-03-22T09:29:42;11.70;99.90
11855;DHT22;5987;53.140;8.904;2024-03-22T09:32:45;11.70;99.90
11855;DHT22;5987;53.140;8.904;2024-03-22T09:35:46;11.60;99.90
11855;DHT22;5987;53.140;8.904;2024-03-22T09:38:48;11.60;99.90
11855;DHT22;5987;53.140;8.904;2024-03-22T09:41:50;11.60;99.90
11855;DHT22;5987;53.140;8.904;2024-03-22T09:44:53;11.60;99.90
11855;DHT22;5987;53.140;8.904;2024-03-22T09:47:56;11.50;99.90
11855;DHT22;5987;53.140;8.904;2024-03-22T09:51:00;11.60;99.90
11855;DHT22;5987;53.140;8.904;2024-03-22T09:54:02;11.50;99.90
11855;DHT22;5987;53.140;8.904;2024-03-22T09:57:05;11.50;99.90
11855;DHT22;5987;53.140;8.904;2024-03-22T10:00:10;11.50;99.90
11855;DHT22;5987;53.140;8.904;2024-03-22T10:03:14;11.40;99.90
11855;DHT22;5987;53.140;8.904;2024-03-22T10:06:18;11.40;99.90
11855;DHT22;5987;53.140;8.904;2024-03-22T10:09:32;11.40;99.90
11855;DHT22;5987;53.140;8.904;2024-03-22T10:12:34;11.40;99.90
11855;DHT22;5987;53.140;8.904;2024-03-22T10:15:36;11.40;99.90
11855;DHT22;5987;53.140;8.904;2024-03-22T10:18:38;11.40;99.90
11855;DHT22;5987;53.140;8.904;2024-03-22T10:21:40;11.50;99.90
11855;DHT22;5987;53.140;8.904;2024-03-22T10:24:42;11.50;99.90
11855;DHT22;5987;53.140;8.904;2024-03-22T10:27:44;11.60;99.90
11855;DHT22;5987;53.140;8.904;2024-03-22T10:30:47;11.70;99.90
11855;DHT22;5987;53.140;8.904;2024-03-22T10:34:18;11.70;99.90
11855;DHT22;5987;53.140;8.904;2024-03-22T10:37:22;11.70;99.90
11855;DHT22;5987;53.140;8.904;2024-03-22T10:40:25;11.80;99.90
11855;DHT22;5987;53.140;8.904;2024-03-22T10:43:29;11.90;99.90
11855;DHT22;5987;53.140;8.904;2024-03-22T10:46:32;11.90;99.90
11855;DHT22;5987;53.140;8.904;2024-03-22T10:49:37;11.90;99.90
11855;DHT22;5987;53.140;8.904;2024-03-22T10:52:45;11.90;99.90
11855;DHT22;5987;53.140;8.904;2024-03-22T10:55:51;11.90;99.90
11855;DHT22;5987;53.140;8.904;2024-03-22T10:59:03;11.90;99.90
11855;DHT22;5987;53.140;8.904;2024-03-22T11:02:05;11.80;99.90
11855;DHT22;5987;53.140;8.904;2024-03-22T11:05:16;11.90;99.90
11855;DHT22;5987;53.140;8.904;2024-03-22T11:08:27;11.90;99.90
11855;DHT22;5987;53.140;8.904;2024-03-22T11:11:32;11.80;99.90
11855;DHT22;5987;53.140;8.904;2024-03-22T11:14:38;11.70;99.90
11855;DHT22;5987;53.140;8.904;2024-03-22T11:17:39;11.80;99.90
11855;DHT22;5987;53.140;8.904;2024-03-22T11:20:42;11.80;99.90
11855;DHT22;5987;53.140;8.904;2024-03-22T11:23:46;11.80;99.90
11855;DHT22;5987;53.140;8.904;2024-03-22T11:26:49;11.90;99.90
11855;DHT22;5987;53.140;8.904;2024-03-22T11:29:50;12.00;99.90
11855;DHT22;5987;53.140;8.904;2024-03-22T11:32:55;11.90;99.90
11855;DHT22;5987;53.140;8.904;2024-03-22T11:36:01;11.90;99.90
11855;DHT22;5987;53.140;8.904;2024-03-22T11:39:05;11.80;99.90
11855;DHT22;5987;53.140;8.904;2024-03-22T11:42:08;11.80;99.90
11855;DHT22;5987;53.140;8.904;2024-03-22T11:45:21;11.80;99.90
11855;DHT22;5987;53.140;8.904;2024-03-22T11:48:25;12.00;99.90
11855;DHT22;5987;53.140;8.904;2024-03-22T11:51:28;11.90;99.90
11855;DHT22;5987;53.140;8.904;2024-03-22T11:54:29;11.90;99.90
11855;DHT22;5987;53.140;8.904;2024-03-22T11:57:32;11.90;99.90
11855;DHT22;5987;53.140;8.904;2024-03-22T12:00:33;11.90;99.90
11855;DHT22;5987;53.140;8.904;2024-03-22T12:03:36;11.80;99.90
11855;DHT22;5987;53.140;8.904;2024-03-22T12:06:37;11.90;99.90
11855;DHT22;5987;53.140;8.904;2024-03-22T12:09:43;11.90;99.90
11855;DHT22;5987;53.140;8.904;2024-03-22T12:12:47;11.80;99.90
11855;DHT22;5987;53.140;8.904;2024-03-22T12:15:49;11.70;99.90
11855;DHT22;5987;53.140;8.904;2024-03-22T12:18:51;11.70;99.90
11855;DHT22;5987;53.140;8.904;2024-03-22T12:21:52;11.80;99.90
11855;DHT22;5987;53.140;8.904;2024-03-22T12:24:56;11.80;99.90
11855;DHT22;5987;53.140;8.904;2024-03-22T12:27:59;11.80;99.90
11855;DHT22;5987;53.140;8.904;2024-03-22T12:31:03;11.80;99.90
11855;DHT22;5987;53.140;8.904;2024-03-22T12:34:05;11.90;99.90
11855;DHT22;5987;53.140;8.904;2024-03-22T12:37:09;12.00;99.90
11855;DHT22;5987;53.140;8.904;2024-03-22T12:40:11;12.10;99.90
11855;DHT22;5987;53.140;8.904;2024-03-22T12:43:14;12.00;99.90
11855;DHT22;5987;53.140;8.904;2024-03-22T12:46:18;12.00;99.90
11855;DHT22;5987;53.140;8.904;2024-03-22T12:49:20;11.90;99.90
11855;DHT22;5987;53.140;8.904;2024-03-22T12:52:22;11.90;99.90
11855;DHT22;5987;53.140;8.904;2024-03-22T12:55:24;11.90;99.90
11855;DHT22;5987;53.140;8.904;2024-03-22T12:58:26;11.90;99.90
11855;DHT22;5987;53.140;8.904;2024-03-22T13:01:28;11.90;99.90
11855;DHT22;5987;53.140;8.904;2024-03-22T13:04:30;11.80;99.90
11855;DHT22;5987;53.140;8.904;2024-03-22T13:07:32;11.80;99.90
11855;DHT22;5987;53.140;8.904;2024-03-22T13:10:34;11.90;99.90
11855;DHT22;5987;53.140;8.904;2024-03-22T13:13:36;11.90;99.90
11855;DHT22;5987;53.140;8.904;2024-03-22T13:16:39;11.90;99.90
11855;DHT22;5987;53.140;8.904;2024-03-22T13:19:40;11.90;99.90
11855;DHT22;5987;53.140;8.904;2024-03-22T13:22:43;11.90;99.90
11855;DHT22;5987;53.140;8.904;2024-03-22T13:25:45;11.90;99.90
11855;DHT22;5987;53.140;8.904;2024-03-22T13:28:47;12.00;99.90
11855;DHT22;5987;53.140;8.904;2024-03-22T13:31:48;12.00;99.90
11855;DHT22;5987;53.140;8.904;2024-03-22T13:34:51;11.90;99.90
11855;DHT22;5987;53.140;8.904;2024-03-22T13:37:56;11.90;99.90
11855;DHT22;5987;53.140;8.904;2024-03-22T13:40:58;11.80;99.90
11855;DHT22;5987;53.140;8.904;2024-03-22T13:44:01;11.90;99.90
11855;DHT22;5987;53.140;8.904;2024-03-22T13:47:04;12.00;99.90
11855;DHT22;5987;53.140;8.904;2024-03-22T13:50:07;11.90;99.90
11855;DHT22;5987;53.140;8.904;2024-03-22T13:53:10;11.80;99.90
11855;DHT22;5987;53.140;8.904;2024-03-22T13:56:11;11.80;99.90
11855;DHT22;5987;53.140;8.904;2024-03-22T13:59:14;11.90;99.90
11855;DHT22;5987;53.140;8.904;2024-03-22T14:02:20;11.90;99.90
11855;DHT22;5987;53.140;8.904;2024-03-22T14:05:23;11.90;99.90
11855;DHT22;5987;53.140;8.904;2024-03-22T14:08:25;11.90;99.90
11855;DHT22;5987;53.140;8.904;2024-03-22T14:11:28;12.00;99.90
11855;DHT22;5987;53.140;8.904;2024-03-22T14:14:34;12.10;99.90
11855;DHT22;5987;53.140;8.904;2024-03-22T14:17:36;12.00;99.90
11855;DHT22;5987;53.140;8.904;2024-03-22T14:20:37;12.00;99.90
11855;DHT22;5987;53.140;8.904;2024-03-22T14:23:40;11.90;99.90
11855;DHT22;5987;53.140;8.904;2024-03-22T14:26:41;11.80;99.90
11855;DHT22;5987;53.140;8.904;2024-03-22T14:29:43;11.70;99.90
11855;DHT22;5987;53.140;8.904;2024-03-22T14:32:46;11.70;99.90
11855;DHT22;5987;53.140;8.904;2024-03-22T14:35:48;11.70;99.90
11855;DHT22;5987;53.140;8.904;2024-03-22T14:38:53;11.70;99.90
11855;DHT22;5987;53.140;8.904;2024-03-22T14:41:55;11.60;99.90
11855;DHT22;5987;53.140;8.904;2024-03-22T14:44:57;11.60;99.90
11855;DHT22;5987;53.140;8.904;2024-03-22T14:48:00;11.50;99.90
11855;DHT22;5987;53.140;8.904;2024-03-22T14:51:05;11.40;99.90
11855;DHT22;5987;53.140;8.904;2024-03-22T14:54:10;11.30;99.90
11855;DHT22;5987;53.140;8.904;2024-03-22T14:57:11;11.30;99.90
11855;DHT22;5987;53.140;8.904;2024-03-22T15:00:14;11.30;99.90
11855;DHT22;5987;53.140;8.904;2024-03-22T15:03:16;11.20;99.90
11855;DHT22;5987;53.140;8.904;2024-03-22T15:06:18;11.10;99.90
11855;DHT22;5987;53.140;8.904;2024-03-22T15:09:20;11.10;99.90
11855;DHT22;5987;53.140;8.904;2024-03-22T15:12:23;11.00;99.90
11855;DHT22;5987;53.140;8.904;2024-03-22T15:15:25;10.80;99.90
11855;DHT22;5987;53.140;8.904;2024-03-22T15:18:28;10.70;99.90
11855;DHT22;5987;53.140;8.904;2024-03-22T15:21:29;10.50;99.90
11855;DHT22;5987;53.140;8.904;2024-03-22T15:24:32;10.40;99.90
11855;DHT22;5987;53.140;8.904;2024-03-22T15:27:33;10.20;99.90
11855;DHT22;5987;53.140;8.904;2024-03-22T15:30:35;10.10;99.90
11855;DHT22;5987;53.140;8.904;2024-03-22T15:33:39;10.20;99.90
11855;DHT22;5987;53.140;8.904;2024-03-22T15:36:40;10.00;99.90
11855;DHT22;5987;53.140;8.904;2024-03-22T15:39:43;10.00;99.90
11855;DHT22;5987;53.140;8.904;2024-03-22T15:42:44;10.00;99.90
11855;DHT22;5987;53.140;8.904;2024-03-22T15:45:47;10.00;99.90
11855;DHT22;5987;53.140;8.904;2024-03-22T15:48:49;10.00;99.90
11855;DHT22;5987;53.140;8.904;2024-03-22T15:51:52;9.90;99.90
11855;DHT22;5987;53.140;8.904;2024-03-22T15:54:54;10.00;99.90
11855;DHT22;5987;53.140;8.904;2024-03-22T15:57:56;10.00;99.90
11855;DHT22;5987;53.140;8.904;2024-03-22T16:00:58;10.10;99.90
11855;DHT22;5987;53.140;8.904;2024-03-22T16:04:00;10.00;99.90
11855;DHT22;5987;53.140;8.904;2024-03-22T16:07:02;9.90;99.90
11855;DHT22;5987;53.140;8.904;2024-03-22T16:10:04;9.90;99.90
11855;DHT22;5987;53.140;8.904;2024-03-22T16:13:07;10.00;99.90
11855;DHT22;5987;53.140;8.904;2024-03-22T16:16:08;9.90;99.90
11855;DHT22;5987;53.140;8.904;2024-03-22T16:19:11;10.00;99.90
11855;DHT22;5987;53.140;8.904;2024-03-22T16:22:12;10.00;99.90
11855;DHT22;5987;53.140;8.904;2024-03-22T16:25:14;10.00;99.90
11855;DHT22;5987;53.140;8.904;2024-03-22T16:28:16;10.00;99.90
11855;DHT22;5987;53.140;8.904;2024-03-22T16:31:18;10.00;99.90
11855;DHT22;5987;53.140;8.904;2024-03-22T16:34:20;10.00;99.90
11855;DHT22;5987;53.140;8.904;2024-03-22T16:37:23;10.00;99.90
11855;DHT22;5987;53.140;8.904;2024-03-22T16:40:24;10.00;99.90
11855;DHT22;5987;53.140;8.904;2024-03-22T16:43:26;10.00;99.90
11855;DHT22;5987;53.140;8.904;2024-03-22T16:46:28;10.10;99.90
11855;DHT22;5987;53.140;8.904;2024-03-22T16:49:30;10.10;99.90
11855;DHT22;5987;53.140;8.904;2024-03-22T16:52:31;10.20;99.90
11855;DHT22;5987;53.140;8.904;2024-03-22T16:55:34;10.20;99.90
11855;DHT22;5987;53.140;8.904;2024-03-22T16:58:35;10.20;99.90
11855;DHT22;5987;53.140;8.904;2024-03-22T17:01:38;10.20;99.90
11855;DHT22;5987;53.140;8.904;2024-03-22T17:04:40;10.30;99.90
11855;DHT22;5987;53.140;8.904;2024-03-22T17:07:41;10.30;99.90
11855;DHT22;5987;53.140;8.904;2024-03-22T17:10:44;10.30;99.90
11855;DHT22;5987;53.140;8.904;2024-03-22T17:13:47;10.30;99.90
11855;DHT22;5987;53.140;8.904;2024-03-22T17:16:48;10.30;99.90
11855;DHT22;5987;53.140;8.904;2024-03-22T17:19:52;10.30;99.90
11855;DHT22;5987;53.140;8.904;2024-03-22T17:22:54;10.40;99.90
11855;DHT22;5987;53.140;8.904;2024-03-22T17:25:59;10.30;99.90
11855;DHT22;5987;53.140;8.904;2024-03-22T17:29:02;10.20;99.90
11855;DHT22;5987;53.140;8.904;2024-03-22T17:32:05;10.10;99.90
11855;DHT22;5987;53.140;8.904;2024-03-22T17:35:08;9.90;99.90
11855;DHT22;5987;53.140;8.904;2024-03-22T17:38:10;9.80;99.90
11855;DHT22;5987;53.140;8.904;2024-03-22T17:41:13;9.80;99.90
11855;DHT22;5987;53.140;8.904;2024-03-22T17:44:14;9.80;99.90
11855;DHT22;5987;53.140;8.904;2024-03-22T17:47:16;9.80;99.90
11855;DHT22;5987;53.140;8.904;2024-03-22T17:50:19;9.80;99.90
11855;DHT22;5987;53.140;8.904;2024-03-22T17:53:21;9.80;99.90
11855;DHT22;5987;53.140;8.904;2024-03-22T17:56:24;9.80;99.90
11855;DHT22;5987;53.140;8.904;2024-03-22T17:59:25;9.80;99.90
11855;DHT22;5987;53.140;8.904;2024-03-22T18:02:27;9.70;99.90
11855;DHT22;5987;53.140;8.904;2024-03-22T18:05:29;9.70;99.90
11855;DHT22;5987;53.140;8.904;2024-03-22T18:08:32;9.70;99.90
11855;DHT22;5987;53.140;8.904;2024-03-22T18:11:34;9.80;99.90
11855;DHT22;5987;53.140;8.904;2024-03-22T18:14:36;9.80;99.90
11855;DHT22;5987;53.140;8.904;2024-03-22T18:17:38;9.80;99.90
11855;DHT22;5987;53.140;8.904;2024-03-22T18:20:39;9.80;99.90
11855;DHT22;5987;53.140;8.904;2024-03-22T18:23:42;9.70;99.90
11855;DHT22;5987;53.140;8.904;2024-03-22T18:26:44;9.70;99.90
11855;DHT22;5987;53.140;8.904;2024-03-22T18:29:47;9.70;99.90
11855;DHT22;5987;53.140;8.904;2024-03-22T18:32:49;9.70;99.90
11855;DHT22;5987;53.140;8.904;2024-03-22T18:35:51;9.60;99.90
11855;DHT22;5987;53.140;8.904;2024-03-22T18:38:54;9.60;99.90
11855;DHT22;5987;53.140;8.904;2024-03-22T18:41:55;9.60;99.90
11855;DHT22;5987;53.140;8.904;2024-03-22T18:44:58;9.60;99.90
11855;DHT22;5987;53.140;8.904;2024-03-22T18:48:00;9.60;99.90
11855;DHT22;5987;53.140;8.904;2024-03-22T18:51:03;9.60;99.90
11855;DHT22;5987;53.140;8.904;2024-03-22T18:54:06;9.60;99.90
11855;DHT22;5987;53.140;8.904;2024-03-22T18:57:10;9.60;99.90
11855;DHT22;5987;53.140;8.904;2024-03-22T19:00:13;9.60;99.90
11855;DHT22;5987;53.140;8.904;2024-03-22T19:03:14;9.50;99.90
11855;DHT22;5987;53.140;8.904;2024-03-22T19:06:17;9.50;99.90
11855;DHT22;5987;53.140;8.904;2024-03-22T19:09:19;9.50;99.90
11855;DHT22;5987;53.140;8.904;2024-03-22T19:12:21;9.50;99.90
11855;DHT22;5987;53.140;8.904;2024-03-22T19:15:28;9.40;99.90
11855;DHT22;5987;53.140;8.904;2024-03-22T19:18:31;9.50;99.90
11855;DHT22;5987;53.140;8.904;2024-03-22T19:21:33;9.50;99.90
11855;DHT22;5987;53.140;8.904;2024-03-22T19:24:35;9.50;99.90
11855;DHT22;5987;53.140;8.904;2024-03-22T19:27:36;9.30;99.90
11855;DHT22;5987;53.140;8.904;2024-03-22T19:30:39;9.30;99.90
11855;DHT22;5987;53.140;8.904;2024-03-22T19:33:41;9.30;99.90